createdAt,value
2018-10-18T00:00:04.981Z,20.63
2018-10-18T00:02:33.389Z,22.67
2018-10-18T00:05:01.974Z,20.93
2018-10-18T00:07:30.397Z,19.43
2018-10-18T00:09:58.801Z,18.33
2018-10-18T00:12:27.258Z,19.23
2018-10-18T00:14:55.633Z,17.27
2018-10-18T00:17:29.434Z,20.83
2018-10-18T00:19:57.933Z,24.13
2018-10-18T00:22:26.317Z,18.50
2018-10-18T00:24:54.742Z,20.60
2018-10-18T00:27:23.177Z,20.50
2018-10-18T00:29:51.604Z,18.87
2018-10-18T00:32:20.002Z,18.97
2018-10-18T00:34:48.422Z,19.97
2018-10-18T00:37:16.797Z,19.53
2018-10-18T00:39:45.226Z,18.63
2018-10-18T00:42:13.699Z,18.87
2018-10-18T00:44:42.069Z,19.83
2018-10-18T00:47:10.514Z,18.50
2018-10-18T00:49:38.938Z,18.30
2018-10-18T00:52:07.365Z,19.07
2018-10-18T00:54:35.845Z,17.73
2018-10-18T00:57:04.262Z,19.10
2018-10-18T00:59:32.713Z,19.00
2018-10-18T01:02:01.154Z,19.40
2018-10-18T01:04:29.587Z,19.57
2018-10-18T01:06:57.978Z,18.53
2018-10-18T01:09:26.358Z,19.33
2018-10-18T01:11:54.851Z,16.93
2018-10-18T01:14:23.208Z,20.43
2018-10-18T01:16:56.703Z,18.47
2018-10-18T01:19:25.110Z,19.00
2018-10-18T01:21:53.553Z,18.20
2018-10-18T01:24:21.920Z,19.73
2018-10-18T01:26:50.354Z,18.93
2018-10-18T01:29:18.741Z,18.57
2018-10-18T01:31:47.166Z,18.53
2018-10-18T01:34:15.570Z,20.00
2018-10-18T01:36:44.014Z,18.30
2018-10-18T01:39:12.419Z,21.20
2018-10-18T01:41:41.404Z,19.27
2018-10-18T01:44:09.992Z,18.33
2018-10-18T01:46:38.475Z,18.27
2018-10-18T01:49:07.255Z,19.33
2018-10-18T01:51:35.813Z,18.43
2018-10-18T01:54:04.270Z,20.80
2018-10-18T01:56:32.727Z,18.87
2018-10-18T01:59:01.165Z,20.07
2018-10-18T02:01:30.270Z,19.27
2018-10-18T02:03:58.718Z,18.30
2018-10-18T02:06:27.198Z,19.70
2018-10-18T02:08:55.633Z,20.17
2018-10-18T02:11:24.030Z,21.60
2018-10-18T02:13:52.458Z,21.47
2018-10-18T02:16:20.859Z,21.07
2018-10-18T02:18:49.273Z,21.83
2018-10-18T02:21:17.673Z,24.77
2018-10-18T02:23:46.089Z,20.97
2018-10-18T02:26:14.534Z,20.23
2018-10-18T02:28:43.245Z,20.57
2018-10-18T02:31:11.815Z,20.50
2018-10-18T02:33:40.271Z,20.23
2018-10-18T02:36:08.740Z,22.00
2018-10-18T02:38:37.110Z,21.73
2018-10-18T02:41:05.582Z,21.93
2018-10-18T02:43:34.033Z,23.43
2018-10-18T02:46:02.922Z,23.60
2018-10-18T02:48:31.354Z,24.10
2018-10-18T02:50:59.766Z,24.33
2018-10-18T02:53:28.206Z,28.73
2018-10-18T02:55:56.602Z,30.47
2018-10-18T02:58:25.040Z,26.40
2018-10-18T03:00:53.445Z,26.47
2018-10-18T03:03:21.890Z,28.00
2018-10-18T03:05:50.282Z,28.13
2018-10-18T03:08:18.669Z,28.13
2018-10-18T03:10:47.090Z,27.93
2018-10-18T03:13:15.478Z,28.50
2018-10-18T03:15:43.890Z,27.07
2018-10-18T03:18:12.338Z,28.20
2018-10-18T03:20:40.730Z,33.57
2018-10-18T03:23:09.149Z,31.63
2018-10-18T03:25:37.569Z,30.90
2018-10-18T03:28:06.090Z,30.30
2018-10-18T03:30:34.553Z,32.50
2018-10-18T03:33:03.678Z,28.83
2018-10-18T03:35:32.151Z,27.53
2018-10-18T03:38:00.553Z,30.13
2018-10-18T03:40:28.985Z,29.57
2018-10-18T03:42:57.431Z,29.73
2018-10-18T03:45:26.126Z,27.80
2018-10-18T03:47:54.537Z,27.13
2018-10-18T03:50:22.948Z,27.67
2018-10-18T03:52:51.338Z,26.43
2018-10-18T03:55:19.777Z,27.13
2018-10-18T03:57:48.193Z,27.67
2018-10-18T04:00:16.882Z,28.90
2018-10-18T04:02:45.082Z,25.90
2018-10-18T04:05:13.465Z,25.20
2018-10-18T04:07:41.898Z,26.50
2018-10-18T04:10:10.293Z,26.73
2018-10-18T04:12:38.799Z,24.47
2018-10-18T04:15:07.463Z,22.93
2018-10-18T04:17:35.890Z,22.80
2018-10-18T04:20:04.427Z,24.00
2018-10-18T04:22:32.877Z,22.43
2018-10-18T04:25:01.990Z,24.13
2018-10-18T04:27:30.429Z,25.33
2018-10-18T04:29:58.835Z,32.10
2018-10-18T04:32:27.291Z,27.93
2018-10-18T04:34:55.690Z,27.27
2018-10-18T04:37:24.227Z,24.40
2018-10-18T04:39:52.543Z,23.07
2018-10-18T04:42:21.003Z,23.30
2018-10-18T04:44:49.397Z,25.77
2018-10-18T04:47:17.838Z,23.83
2018-10-18T04:49:46.246Z,25.73
2018-10-18T04:52:14.625Z,24.47
2018-10-18T04:54:43.060Z,25.23
2018-10-18T04:57:11.447Z,25.17
2018-10-18T04:59:40.273Z,25.57
2018-10-18T05:02:08.662Z,24.43
2018-10-18T05:04:37.081Z,23.37
2018-10-18T05:07:05.604Z,25.27
2018-10-18T05:09:34.341Z,24.60
2018-10-18T05:12:02.790Z,25.87
2018-10-18T05:14:31.210Z,23.43
2018-10-18T05:16:59.603Z,24.50
2018-10-18T05:19:28.031Z,25.47
2018-10-18T05:21:56.430Z,23.00
2018-10-18T05:24:24.866Z,21.77
2018-10-18T05:26:53.318Z,21.50
2018-10-18T05:29:21.745Z,23.23
2018-10-18T05:31:50.240Z,23.57
2018-10-18T05:34:18.610Z,23.57
2018-10-18T05:36:46.993Z,26.20
2018-10-18T05:39:15.443Z,23.20
2018-10-18T05:41:43.826Z,24.33
2018-10-18T05:44:12.270Z,27.50
2018-10-18T05:46:40.773Z,22.93
2018-10-18T05:49:09.247Z,28.40
2018-10-18T05:51:37.618Z,25.23
2018-10-18T05:54:06.079Z,24.27
2018-10-18T05:56:34.481Z,24.27
2018-10-18T05:59:02.929Z,26.00
2018-10-18T06:01:31.369Z,26.93
2018-10-18T06:03:59.761Z,26.27
2018-10-18T06:06:28.202Z,23.50
2018-10-18T06:08:56.593Z,27.13
2018-10-18T06:11:28.253Z,22.57
2018-10-18T06:13:56.650Z,24.37
2018-10-18T06:16:25.941Z,26.03
2018-10-18T06:18:54.444Z,30.30
2018-10-18T06:21:23.579Z,25.07
2018-10-18T06:23:52.016Z,24.67
2018-10-18T06:26:20.814Z,27.87
2018-10-18T06:28:49.794Z,24.83
2018-10-18T06:31:18.353Z,29.53
2018-10-18T06:33:46.960Z,38.57
2018-10-18T06:36:15.492Z,32.00
2018-10-18T06:38:44.034Z,27.60
2018-10-18T06:41:12.484Z,28.43
2018-10-18T06:43:41.858Z,27.73
2018-10-18T06:46:12.015Z,31.93
2018-10-18T06:48:41.085Z,30.00
2018-10-18T06:51:09.843Z,23.07
2018-10-18T06:53:38.353Z,27.00
2018-10-18T06:56:06.922Z,23.77
2018-10-18T06:58:35.505Z,24.67
2018-10-18T07:01:04.015Z,25.03
2018-10-18T07:03:32.447Z,24.03
2018-10-18T07:06:01.115Z,22.67
2018-10-18T07:08:29.641Z,22.80
2018-10-18T07:10:58.144Z,24.03
2018-10-18T07:13:26.533Z,27.57
2018-10-18T07:15:54.922Z,23.93
2018-10-18T07:18:23.358Z,26.50
2018-10-18T07:20:51.771Z,26.10
2018-10-18T07:23:20.175Z,28.77
2018-10-18T07:25:48.633Z,26.50
2018-10-18T07:28:17.074Z,29.33
2018-10-18T07:30:45.502Z,29.97
2018-10-18T07:33:13.951Z,30.73
2018-10-18T07:35:42.915Z,28.97
2018-10-18T07:38:12.903Z,28.80
2018-10-18T07:40:41.373Z,29.87
2018-10-18T07:43:09.911Z,29.37
2018-10-18T07:45:38.290Z,29.93
2018-10-18T07:48:06.814Z,33.20
2018-10-18T07:50:35.205Z,33.10
2018-10-18T07:53:03.687Z,31.70
2018-10-18T07:55:32.085Z,34.10
2018-10-18T07:58:00.496Z,36.63
2018-10-18T08:00:29.019Z,34.40
2018-10-18T08:02:57.379Z,34.60
2018-10-18T08:05:28.946Z,39.10
2018-10-18T08:07:57.422Z,34.10
2018-10-18T08:10:25.887Z,37.07
2018-10-18T08:12:54.352Z,34.13
2018-10-18T08:15:22.874Z,37.20
2018-10-18T08:17:52.174Z,35.43
2018-10-18T08:20:20.714Z,38.43
2018-10-18T08:22:50.322Z,36.13
2018-10-18T08:25:18.921Z,38.57
2018-10-18T08:27:49.366Z,37.93
2018-10-18T08:30:17.790Z,38.23
2018-10-18T08:32:46.270Z,42.30
2018-10-18T08:35:14.708Z,44.07
2018-10-18T08:37:43.284Z,39.47
2018-10-18T08:40:11.629Z,40.17
2018-10-18T08:42:40.122Z,42.00
2018-10-18T08:45:09.479Z,40.30
2018-10-18T08:47:37.932Z,45.23
2018-10-18T08:50:08.087Z,42.90
2018-10-18T08:52:36.608Z,39.93
2018-10-18T08:55:05.911Z,40.97
2018-10-18T08:57:34.339Z,45.97
2018-10-18T09:00:02.817Z,40.43
2018-10-18T09:02:32.111Z,40.03
2018-10-18T09:05:01.923Z,40.53
2018-10-18T09:07:31.369Z,41.97
2018-10-18T09:09:59.780Z,46.23
2018-10-18T09:12:28.226Z,47.53
2018-10-18T09:14:56.679Z,45.87
2018-10-18T09:17:25.106Z,45.87
2018-10-18T09:19:54.114Z,47.27
2018-10-18T09:22:22.528Z,47.13
2018-10-18T09:24:50.968Z,48.87
2018-10-18T09:27:20.037Z,49.63
2018-10-18T09:29:48.535Z,44.80
2018-10-18T09:32:17.027Z,50.93
2018-10-18T09:34:45.603Z,49.33
2018-10-18T09:37:14.257Z,48.03
2018-10-18T09:39:42.699Z,47.80
2018-10-18T09:42:11.258Z,44.97
2018-10-18T09:44:40.047Z,50.27
2018-10-18T09:47:09.248Z,48.27
2018-10-18T09:49:37.677Z,50.10
2018-10-18T09:52:06.162Z,49.50
2018-10-18T09:54:34.660Z,48.10
2018-10-18T09:57:03.343Z,54.30
2018-10-18T09:59:31.793Z,47.30
2018-10-18T10:02:05.380Z,51.53
2018-10-18T10:04:33.824Z,50.13
2018-10-18T10:07:02.967Z,51.17
2018-10-18T10:09:31.430Z,49.53
2018-10-18T10:11:59.829Z,54.70
2018-10-18T10:14:28.231Z,47.10
2018-10-18T10:16:56.703Z,51.63
2018-10-18T10:19:25.147Z,54.40
2018-10-18T10:21:53.787Z,44.77
2018-10-18T10:24:22.872Z,53.70
2018-10-18T10:26:51.335Z,47.50
2018-10-18T10:29:19.963Z,53.83
2018-10-18T10:31:48.410Z,49.63
2018-10-18T10:34:16.872Z,45.67
2018-10-18T10:36:45.346Z,45.07
2018-10-18T10:39:13.821Z,45.57
2018-10-18T10:41:42.221Z,41.67
2018-10-18T10:44:11.026Z,43.33
2018-10-18T10:46:40.678Z,47.67
2018-10-18T10:49:09.792Z,43.67
2018-10-18T10:51:38.422Z,43.63
2018-10-18T10:54:07.953Z,43.80
2018-10-18T10:56:36.399Z,48.53
2018-10-18T10:59:17.263Z,44.17
2018-10-18T11:01:45.806Z,70.70
2018-10-18T11:04:14.323Z,47.60
2018-10-18T11:06:42.873Z,47.63
2018-10-18T11:09:11.991Z,46.00
2018-10-18T11:11:40.424Z,53.57
2018-10-18T11:14:08.962Z,50.97
2018-10-18T11:16:37.446Z,48.40
2018-10-18T11:19:05.921Z,48.47
2018-10-18T11:21:34.424Z,43.47
2018-10-18T11:24:03.029Z,45.73
2018-10-18T11:26:31.468Z,44.33
2018-10-18T11:28:59.964Z,45.93
2018-10-18T11:31:28.474Z,40.83
2018-10-18T11:33:56.963Z,45.87
2018-10-18T11:36:25.573Z,46.30
2018-10-18T11:38:54.082Z,44.03
2018-10-18T11:41:22.687Z,45.07
2018-10-18T11:43:51.214Z,47.60
2018-10-18T11:46:19.729Z,36.77
2018-10-18T11:48:48.221Z,46.33
2018-10-18T11:51:16.653Z,42.20
2018-10-18T11:53:45.149Z,39.47
2018-10-18T11:56:13.698Z,37.83
2018-10-18T11:58:42.066Z,35.43
2018-10-18T12:01:10.550Z,37.77
2018-10-18T12:03:38.993Z,36.60
2018-10-18T12:06:07.416Z,36.67
2018-10-18T12:08:35.838Z,33.33
2018-10-18T12:11:04.438Z,30.63
2018-10-18T12:13:32.894Z,31.93
2018-10-18T12:16:01.965Z,33.07
2018-10-18T12:18:30.498Z,39.63
2018-10-18T12:20:58.942Z,31.50
2018-10-18T12:23:27.342Z,32.37
2018-10-18T12:25:55.797Z,30.90
2018-10-18T12:28:24.234Z,33.63
2018-10-18T12:30:52.706Z,32.73
2018-10-18T12:33:21.115Z,35.30
2018-10-18T12:35:49.610Z,30.37
2018-10-18T12:38:18.157Z,26.23
2018-10-18T12:40:46.639Z,27.87
2018-10-18T12:43:15.073Z,27.80
2018-10-18T12:45:43.586Z,26.83
2018-10-18T12:48:12.085Z,28.83
2018-10-18T12:50:40.505Z,25.90
2018-10-18T12:53:08.953Z,25.30
2018-10-18T12:55:37.408Z,28.73
2018-10-18T12:58:05.982Z,24.97
2018-10-18T13:00:34.462Z,23.40
2018-10-18T13:03:03.578Z,26.13
2018-10-18T13:05:31.986Z,23.30
2018-10-18T13:08:00.461Z,25.57
2018-10-18T13:10:28.875Z,26.43
2018-10-18T13:12:57.314Z,21.70
2018-10-18T13:15:25.745Z,25.57
2018-10-18T13:17:54.194Z,22.47
2018-10-18T13:20:22.673Z,24.83
2018-10-18T13:22:51.106Z,24.03
2018-10-18T13:25:19.536Z,24.70
2018-10-18T13:27:47.989Z,24.63
2018-10-18T13:30:16.516Z,29.67
2018-10-18T13:32:44.948Z,29.33
2018-10-18T13:35:13.402Z,28.50
2018-10-18T13:37:41.890Z,25.52
2018-10-18T13:40:10.321Z,23.80
2018-10-18T13:42:39.886Z,26.60
2018-10-18T13:45:08.574Z,24.90
2018-10-18T13:47:37.150Z,26.13
2018-10-18T13:50:06.235Z,23.52
2018-10-18T13:52:34.787Z,25.27
2018-10-18T13:55:03.650Z,26.40
2018-10-18T13:57:32.176Z,25.62
2018-10-18T14:00:22.995Z,26.42
2018-10-18T14:02:52.562Z,26.70
2018-10-18T14:05:21.397Z,27.32
2018-10-18T14:07:50.837Z,28.38
2018-10-18T14:10:19.339Z,27.32
2018-10-18T14:12:47.912Z,26.33
2018-10-18T14:15:16.897Z,27.52
2018-10-18T14:17:45.380Z,28.52
2018-10-18T14:20:15.531Z,27.22
2018-10-18T14:22:43.855Z,27.35
2018-10-18T14:25:12.389Z,26.62
2018-10-18T14:27:40.926Z,26.68
2018-10-18T14:30:10.751Z,31.48
2018-10-18T14:32:39.163Z,28.73
2018-10-18T14:35:08.723Z,38.20
2018-10-18T14:37:37.054Z,28.23
2018-10-18T14:40:06.013Z,30.70
2018-10-18T14:42:34.517Z,28.05
2018-10-18T14:45:04.368Z,28.38
2018-10-18T14:47:32.805Z,27.50
2018-10-18T14:50:02.023Z,29.27
2018-10-18T14:52:30.420Z,29.82
2018-10-18T14:54:58.850Z,30.23
2018-10-18T14:57:27.298Z,29.60
2018-10-18T14:59:55.713Z,29.65
2018-10-18T15:02:24.165Z,30.40
2018-10-18T15:04:52.658Z,29.15
2018-10-18T15:07:21.174Z,29.92
2018-10-18T15:09:49.622Z,29.45
2018-10-18T15:12:18.843Z,29.98
2018-10-18T15:14:47.314Z,31.30
2018-10-18T15:17:15.877Z,30.20
2018-10-18T15:19:44.292Z,31.35
2018-10-18T15:22:12.741Z,31.42
2018-10-18T15:24:41.165Z,30.75
2018-10-18T15:27:09.691Z,28.05
2018-10-18T15:29:38.097Z,29.30
2018-10-18T15:32:07.420Z,29.20
2018-10-18T15:34:35.755Z,29.55
2018-10-18T15:37:09.206Z,29.63
2018-10-18T15:39:37.698Z,29.90
2018-10-18T15:42:06.500Z,28.73
2018-10-18T15:44:35.191Z,27.65
2018-10-18T15:47:03.871Z,26.40
2018-10-18T15:49:32.282Z,25.17
2018-10-18T15:52:00.973Z,29.07
2018-10-18T15:54:29.516Z,26.70
2018-10-18T15:56:57.899Z,27.27
2018-10-18T15:59:26.641Z,24.30
2018-10-18T16:01:55.069Z,29.47
2018-10-18T16:04:23.540Z,26.55
2018-10-18T16:06:52.000Z,29.60
2018-10-18T16:09:20.497Z,26.23
2018-10-18T16:11:48.902Z,28.00
2018-10-18T16:14:17.440Z,29.33
2018-10-18T16:16:45.822Z,29.53
2018-10-18T16:19:14.491Z,25.83
2018-10-18T16:21:42.900Z,26.97
2018-10-18T16:24:12.034Z,29.03
2018-10-18T16:26:40.466Z,28.20
2018-10-18T16:29:09.022Z,26.50
2018-10-18T16:31:37.391Z,28.07
2018-10-18T16:34:07.641Z,28.43
2018-10-18T16:36:36.132Z,28.43
2018-10-18T16:39:07.217Z,26.93
2018-10-18T16:41:35.837Z,29.43
2018-10-18T16:44:04.336Z,28.07
2018-10-18T16:46:32.706Z,27.37
2018-10-18T16:49:01.931Z,29.03
2018-10-18T16:51:30.327Z,32.70
2018-10-18T16:53:58.897Z,28.33
2018-10-18T16:56:27.301Z,30.60
2018-10-18T16:58:56.899Z,28.40
2018-10-18T17:01:25.451Z,29.07
2018-10-18T17:03:53.938Z,31.63
2018-10-18T17:06:22.386Z,27.70
2018-10-18T17:08:50.815Z,29.90
2018-10-18T17:11:19.394Z,28.27
2018-10-18T17:13:48.459Z,32.27
2018-10-18T17:16:19.030Z,34.27
2018-10-18T17:18:47.619Z,30.03
2018-10-18T17:21:16.648Z,31.87
2018-10-18T17:23:45.013Z,30.93
2018-10-18T17:26:13.561Z,30.10
2018-10-18T17:28:41.897Z,29.50
2018-10-18T17:31:10.367Z,33.70
2018-10-18T17:33:38.787Z,28.10
2018-10-18T17:36:07.354Z,31.67
2018-10-18T17:38:35.754Z,28.40
2018-10-18T17:41:04.469Z,28.40
2018-10-18T17:43:32.986Z,28.23
2018-10-18T17:46:01.704Z,27.67
2018-10-18T17:48:30.138Z,26.60
2018-10-18T17:50:58.590Z,27.40
2018-10-18T17:53:27.801Z,28.93
2018-10-18T17:55:59.121Z,25.83
2018-10-18T17:58:27.611Z,24.73
2018-10-18T18:00:56.036Z,24.00
2018-10-18T18:03:24.790Z,31.03
2018-10-18T18:05:53.292Z,32.27
2018-10-18T18:08:21.950Z,32.87
2018-10-18T18:10:51.858Z,30.67
2018-10-18T18:13:20.345Z,33.77
2018-10-18T18:15:48.757Z,31.30
2018-10-18T18:18:17.257Z,30.83
2018-10-18T18:20:45.736Z,30.27
2018-10-18T18:23:14.161Z,28.23
2018-10-18T18:25:43.455Z,28.23
2018-10-18T18:28:11.933Z,28.60
2018-10-18T18:30:40.350Z,26.10
2018-10-18T18:33:08.824Z,25.37
2018-10-18T18:35:37.294Z,28.63
2018-10-18T18:38:05.809Z,27.33
2018-10-18T18:40:34.246Z,28.00
2018-10-18T18:43:03.416Z,29.43
2018-10-18T18:45:33.845Z,29.20
2018-10-18T18:48:02.666Z,28.33
2018-10-18T18:50:31.267Z,26.03
2018-10-18T18:52:59.732Z,28.90
2018-10-18T18:55:28.183Z,31.80
2018-10-18T18:57:56.613Z,31.67
2018-10-18T19:00:25.870Z,28.07
2018-10-18T19:02:54.304Z,31.53
2018-10-18T19:08:24.167Z,28.53
2018-10-18T19:10:52.754Z,27.97
2018-10-18T19:13:21.572Z,32.50
2018-10-18T19:15:51.773Z,28.17
2018-10-18T19:18:20.767Z,29.83
2018-10-18T19:20:49.250Z,31.60
2018-10-18T19:23:17.855Z,34.03
2018-10-18T19:25:46.306Z,32.97
2018-10-18T19:28:14.848Z,30.50
2018-10-18T19:30:43.326Z,34.40
2018-10-18T19:33:11.733Z,31.77
2018-10-18T19:35:40.178Z,29.17
2018-10-18T19:38:08.707Z,31.80
2018-10-18T19:40:37.186Z,32.17
2018-10-18T19:43:06.138Z,29.83
2018-10-18T19:45:34.635Z,28.70
2018-10-18T19:48:03.669Z,31.97
2018-10-18T19:50:32.163Z,28.30
2018-10-18T19:53:00.612Z,26.80
2018-10-18T19:55:35.571Z,30.20
2018-10-18T19:58:04.014Z,29.63
2018-10-18T20:00:32.450Z,33.30
2018-10-18T20:03:00.893Z,31.77
2018-10-18T20:05:29.394Z,33.30
2018-10-18T20:07:58.076Z,32.97
2018-10-18T20:10:26.483Z,30.77
2018-10-18T20:12:55.023Z,32.20
2018-10-18T20:15:23.405Z,30.77
2018-10-18T20:17:51.869Z,34.63
2018-10-18T20:20:20.363Z,33.83
2018-10-18T20:22:48.810Z,33.63
2018-10-18T20:25:17.402Z,32.20
2018-10-18T20:27:45.833Z,33.93
2018-10-18T20:30:15.284Z,31.27
2018-10-18T20:32:43.881Z,32.33
2018-10-18T20:35:12.413Z,34.60
2018-10-18T20:37:41.458Z,37.80
2018-10-18T20:40:12.358Z,37.47
2018-10-18T20:42:41.009Z,31.53
2018-10-18T20:45:13.729Z,34.27
2018-10-18T20:47:42.472Z,32.93
2018-10-18T20:50:10.994Z,34.10
2018-10-18T20:52:39.446Z,35.57
2018-10-18T20:55:08.411Z,35.40
2018-10-18T20:57:36.889Z,37.40
2018-10-18T21:00:05.944Z,36.40
2018-10-18T21:02:34.327Z,35.67
2018-10-18T21:05:02.962Z,37.23
2018-10-18T21:07:31.451Z,36.90
2018-10-18T21:09:59.994Z,39.37
2018-10-18T21:12:28.460Z,34.10
2018-10-18T21:14:56.908Z,33.40
2018-10-18T21:17:25.378Z,39.27
2018-10-18T21:19:53.845Z,37.33
2018-10-18T21:22:22.338Z,37.63
2018-10-18T21:24:50.795Z,35.77
2018-10-18T21:27:19.201Z,32.57
2018-10-18T21:29:47.666Z,36.97
2018-10-18T21:32:16.128Z,34.20
2018-10-18T21:34:44.594Z,35.40
2018-10-18T21:37:13.034Z,33.00
2018-10-18T21:39:41.981Z,37.63
2018-10-18T21:42:10.439Z,35.27
2018-10-18T21:44:39.114Z,31.20
2018-10-18T21:47:07.633Z,30.60
2018-10-18T21:49:36.052Z,35.30
2018-10-18T21:52:04.532Z,34.33
2018-10-18T21:54:32.921Z,33.20
2018-10-18T21:57:01.402Z,33.47
2018-10-18T21:59:29.774Z,32.33
2018-10-18T22:01:58.258Z,33.17
2018-10-18T22:04:26.670Z,34.80
2018-10-18T22:06:55.098Z,36.07
2018-10-18T22:09:23.530Z,30.60
2018-10-18T22:11:51.974Z,34.23
2018-10-18T22:14:20.430Z,35.03
2018-10-18T22:16:48.857Z,35.20
2018-10-18T22:19:17.394Z,34.67
2018-10-18T22:21:45.879Z,36.40
2018-10-18T22:24:14.293Z,36.10
2018-10-18T22:26:42.734Z,35.40
2018-10-18T22:29:11.225Z,34.17
2018-10-18T22:31:39.622Z,34.57
2018-10-18T22:34:08.063Z,33.50
2018-10-18T22:36:36.517Z,34.07
2018-10-18T22:39:08.087Z,32.13
2018-10-18T22:41:36.593Z,33.27
2018-10-18T22:44:05.768Z,35.47
2018-10-18T22:46:34.214Z,33.77
2018-10-18T22:49:02.886Z,34.57
2018-10-18T22:51:31.290Z,31.07
2018-10-18T22:53:59.714Z,33.53
2018-10-18T22:56:28.202Z,36.17
2018-10-18T22:58:56.647Z,35.03
2018-10-18T23:01:25.085Z,36.87
2018-10-18T23:03:53.538Z,37.07
2018-10-18T23:06:21.937Z,34.10
2018-10-18T23:08:50.369Z,36.47
2018-10-18T23:11:18.763Z,33.37
2018-10-18T23:13:47.234Z,38.47
2018-10-18T23:16:15.634Z,37.23
2018-10-18T23:18:44.097Z,37.37
2018-10-18T23:21:12.545Z,35.57
2018-10-18T23:23:40.996Z,34.50
2018-10-18T23:26:09.413Z,36.60
2018-10-18T23:28:37.845Z,33.97
2018-10-18T23:31:06.265Z,34.83
2018-10-18T23:33:34.709Z,34.80
2018-10-18T23:36:03.623Z,32.90
2018-10-18T23:38:32.058Z,33.83
2018-10-18T23:41:00.518Z,32.43
2018-10-18T23:43:28.941Z,32.70
2018-10-18T23:46:04.064Z,35.13
2018-10-18T23:48:32.524Z,34.40
2018-10-18T23:51:01.050Z,37.77
2018-10-18T23:53:29.426Z,37.13
2018-10-18T23:55:57.866Z,31.63
2018-10-18T23:58:26.314Z,34.80
